Time,TemperatureF,DewpointF,PressureIn,WindDirection,WindDirectionDegrees,WindSpeedMPH,WindSpeedGustMPH,Humidity,HourlyPrecipIn,Conditions,Clouds,dailyrainin,SolarRadiationWatts/m^2,SoftwareType,DateUTC
2013-06-07 00:00:00,54.0,42.0,-100.00,ENE,67,1.0,-999.0,63,-99.99,,,-99.99,0.000000,,2013-06-07 04:00:00,
2013-06-07 00:33:00,54.0,42.0,-100.00,ENE,67,1.0,-999.0,63,-99.99,,,-99.99,0.000000,,2013-06-07 04:33:00,
2013-06-07 00:42:00,54.0,42.0,-100.00,ENE,67,1.0,-999.0,63,-99.99,,,-99.99,0.000000,,2013-06-07 04:42:00,
2013-06-07 00:54:00,54.0,42.0,-100.00,ENE,67,1.0,-999.0,63,-99.99,,,-99.99,0.000000,,2013-06-07 04:54:00,
2013-06-07 01:00:00,54.0,42.0,-100.00,ENE,67,3.0,-999.0,65,-99.99,,,-99.99,0.000000,,2013-06-07 05:00:00,
2013-06-07 01:32:00,54.0,42.0,-100.00,ENE,67,3.0,-999.0,65,-99.99,,,-99.99,0.000000,,2013-06-07 05:32:00,
2013-06-07 01:43:00,54.0,42.0,-100.00,ENE,67,3.0,-999.0,65,-99.99,,,-99.99,0.000000,,2013-06-07 05:43:00,
2013-06-07 01:52:00,54.0,42.0,-100.00,ENE,67,3.0,-999.0,65,-99.99,,,-99.99,0.000000,,2013-06-07 05:52:00,
2013-06-07 02:00:00,53.0,42.0,-100.00,ENE,67,4.0,-999.0,66,-99.99,,,-99.99,0.000000,,2013-06-07 06:00:00,
2013-06-07 02:32:00,53.0,42.0,-100.00,ENE,67,4.0,-999.0,66,-99.99,,,-99.99,0.000000,,2013-06-07 06:32:00,
2013-06-07 02:43:00,53.0,42.0,-100.00,ENE,67,4.0,-999.0,66,-99.99,,,-99.99,0.000000,,2013-06-07 06:43:00,
2013-06-07 02:52:00,53.0,42.0,-100.00,ENE,67,4.0,-999.0,66,-99.99,,,-99.99,0.000000,,2013-06-07 06:52:00,
2013-06-07 03:00:00,51.0,42.0,-100.00,ENE,67,3.0,-999.0,72,-99.99,,,-99.99,0.000000,,2013-06-07 07:00:00,
2013-06-07 03:32:00,51.0,42.0,-100.00,ENE,67,3.0,-999.0,72,-99.99,,,-99.99,0.000000,,2013-06-07 07:32:00,
2013-06-07 03:42:00,51.0,42.0,-100.00,ENE,67,3.0,-999.0,72,-99.99,,,-99.99,0.000000,,2013-06-07 07:42:00,
2013-06-07 03:52:00,51.0,42.0,-100.00,ENE,67,3.0,-999.0,72,-99.99,,,-99.99,0.000000,,2013-06-07 07:52:00,
2013-06-07 04:00:00,48.0,42.0,-100.00,NE,45,2.0,-999.0,79,-99.99,,,-99.99,0.000000,,2013-06-07 08:00:00,
2013-06-07 04:32:00,48.0,42.0,-100.00,NE,45,2.0,-999.0,79,-99.99,,,-99.99,0.000000,,2013-06-07 08:32:00,
2013-06-07 04:43:00,48.0,42.0,-100.00,NE,45,2.0,-999.0,79,-99.99,,,-99.99,0.000000,,2013-06-07 08:43:00,
2013-06-07 04:52:00,48.0,42.0,-100.00,NE,45,2.0,-999.0,79,-99.99,,,-99.99,0.000000,,2013-06-07 08:52:00,
2013-06-07 05:00:00,47.0,42.0,-100.00,NNE,22,2.0,-999.0,83,-99.99,,,-99.99,0.000000,,2013-06-07 09:00:00,
2013-06-07 05:33:00,47.0,42.0,-100.00,NNE,22,2.0,-999.0,83,-99.99,,,-99.99,0.000000,,2013-06-07 09:33:00,
2013-06-07 05:43:00,47.0,42.0,-100.00,NNE,22,2.0,-999.0,83,-99.99,,,-99.99,0.000000,,2013-06-07 09:43:00,
2013-06-07 05:53:00,47.0,42.0,-100.00,NNE,22,2.0,-999.0,83,-99.99,,,-99.99,0.000000,,2013-06-07 09:53:00,
2013-06-07 06:00:00,47.0,42.0,-100.00,NE,45,0.0,-999.0,84,-99.99,,,-99.99,1.160000,,2013-06-07 10:00:00,
2013-06-07 06:33:00,47.0,42.0,-100.00,NE,45,0.0,-999.0,84,-99.99,,,-99.99,1.160000,,2013-06-07 10:33:00,
2013-06-07 06:43:00,47.0,42.0,-100.00,NE,45,0.0,-999.0,84,-99.99,,,-99.99,1.160000,,2013-06-07 10:43:00,
2013-06-07 06:53:00,47.0,42.0,-100.00,NE,45,0.0,-999.0,84,-99.99,,,-99.99,1.160000,,2013-06-07 10:53:00,
2013-06-07 07:00:00,47.0,42.0,-100.00,NE,45,0.0,-999.0,85,-99.99,,,-99.99,34.799999,,2013-06-07 11:00:00,
2013-06-07 07:32:00,47.0,42.0,-100.00,NE,45,0.0,-999.0,85,-99.99,,,-99.99,34.799999,,2013-06-07 11:32:00,
2013-06-07 07:42:00,47.0,42.0,-100.00,NE,45,0.0,-999.0,85,-99.99,,,-99.99,34.799999,,2013-06-07 11:42:00,
2013-06-07 07:52:00,47.0,42.0,-100.00,NE,45,0.0,-999.0,85,-99.99,,,-99.99,34.799999,,2013-06-07 11:52:00,
2013-06-07 08:00:00,50.0,44.0,-100.00,NE,45,0.0,-999.0,78,-99.99,,,-99.99,98.599998,,2013-06-07 12:00:00,
2013-06-07 08:33:00,50.0,44.0,-100.00,NE,45,0.0,-999.0,78,-99.99,,,-99.99,98.599998,,2013-06-07 12:33:00,
2013-06-07 08:42:00,50.0,44.0,-100.00,NE,45,0.0,-999.0,78,-99.99,,,-99.99,98.599998,,2013-06-07 12:42:00,
2013-06-07 08:52:00,50.0,44.0,-100.00,NE,45,0.0,-999.0,78,-99.99,,,-99.99,98.599998,,2013-06-07 12:52:00,
2013-06-07 09:00:00,60.0,44.0,-100.00,SSE,157,1.0,-999.0,55,-99.99,,,-99.99,380.480011,,2013-06-07 13:00:00,
2013-06-07 09:32:00,60.0,44.0,-100.00,SSE,157,1.0,-999.0,55,-99.99,,,-99.99,380.480011,,2013-06-07 13:32:00,
2013-06-07 09:43:00,60.0,44.0,-100.00,SSE,157,1.0,-999.0,55,-99.99,,,-99.99,380.480011,,2013-06-07 13:43:00,
2013-06-07 09:52:00,60.0,44.0,-100.00,SSE,157,1.0,-999.0,55,-99.99,,,-99.99,380.480011,,2013-06-07 13:52:00,
2013-06-07 10:00:00,63.0,45.0,-100.00,SSW,202,3.0,-999.0,51,-99.99,,,-99.99,527.799988,,2013-06-07 14:00:00,
2013-06-07 10:33:00,63.0,45.0,-100.00,SSW,202,3.0,-999.0,51,-99.99,,,-99.99,527.799988,,2013-06-07 14:33:00,
2013-06-07 10:42:00,63.0,45.0,-100.00,SSW,202,3.0,-999.0,51,-99.99,,,-99.99,527.799988,,2013-06-07 14:42:00,
2013-06-07 10:52:00,63.0,45.0,-100.00,SSW,202,3.0,-999.0,51,-99.99,,,-99.99,527.799988,,2013-06-07 14:52:00,
2013-06-07 11:00:00,63.0,48.0,-100.00,SW,225,3.0,-999.0,57,-99.99,,,-99.99,680.919983,,2013-06-07 15:00:00,
2013-06-07 11:33:00,63.0,48.0,-100.00,SW,225,3.0,-999.0,57,-99.99,,,-99.99,680.919983,,2013-06-07 15:33:00,
2013-06-07 11:43:00,63.0,48.0,-100.00,SW,225,3.0,-999.0,57,-99.99,,,-99.99,680.919983,,2013-06-07 15:43:00,
2013-06-07 11:53:00,63.0,48.0,-100.00,SW,225,3.0,-999.0,57,-99.99,,,-99.99,680.919983,,2013-06-07 15:53:00,
2013-06-07 12:00:00,64.0,49.0,-100.00,WSW,247,4.0,-999.0,57,-99.99,,,-99.99,777.200012,,2013-06-07 16:00:00,
2013-06-07 12:33:00,64.0,49.0,-100.00,WSW,247,4.0,-999.0,57,-99.99,,,-99.99,777.200012,,2013-06-07 16:33:00,
2013-06-07 12:43:00,64.0,49.0,-100.00,WSW,247,4.0,-999.0,57,-99.99,,,-99.99,777.200012,,2013-06-07 16:43:00,
2013-06-07 12:53:00,64.0,49.0,-100.00,WSW,247,4.0,-999.0,57,-99.99,,,-99.99,777.200012,,2013-06-07 16:53:00,
2013-06-07 13:00:00,69.0,50.0,-100.00,WSW,247,3.0,-999.0,52,-99.99,,,-99.99,878.119995,,2013-06-07 17:00:00,
2013-06-07 13:32:00,69.0,50.0,-100.00,WSW,247,3.0,-999.0,52,-99.99,,,-99.99,878.119995,,2013-06-07 17:32:00,
2013-06-07 13:43:00,69.0,50.0,-100.00,WSW,247,3.0,-999.0,52,-99.99,,,-99.99,878.119995,,2013-06-07 17:43:00,
2013-06-07 13:53:00,69.0,50.0,-100.00,WSW,247,3.0,-999.0,52,-99.99,,,-99.99,878.119995,,2013-06-07 17:53:00,
2013-06-07 14:00:00,69.0,46.0,-100.00,SSE,157,4.0,-999.0,43,-99.99,,,-99.99,817.799988,,2013-06-07 18:00:00,
2013-06-07 14:38:00,69.0,46.0,-100.00,SSE,157,4.0,-999.0,43,-99.99,,,-99.99,817.799988,,2013-06-07 18:38:00,
2013-06-07 14:45:00,69.0,46.0,-100.00,SSE,157,4.0,-999.0,43,-99.99,,,-99.99,817.799988,,2013-06-07 18:45:00,
2013-06-07 15:00:00,72.0,40.0,-100.00,East,90,5.0,-999.0,31,-99.99,,,-99.99,849.119995,,2013-06-07 19:00:00,
2013-06-07 15:51:00,72.0,40.0,-100.00,East,90,5.0,-999.0,31,-99.99,,,-99.99,849.119995,,2013-06-07 19:51:00,
2013-06-07 15:59:00,72.0,40.0,-100.00,East,90,5.0,-999.0,31,-99.99,,,-99.99,849.119995,,2013-06-07 19:59:00,
2013-06-07 16:00:00,71.0,38.0,-100.00,East,90,7.0,-999.0,29,-99.99,,,-99.99,744.719971,,2013-06-07 20:00:00,
2013-06-07 16:42:00,71.0,38.0,-100.00,East,90,7.0,-999.0,29,-99.99,,,-99.99,744.719971,,2013-06-07 20:42:00,
2013-06-07 16:52:00,71.0,38.0,-100.00,East,90,7.0,-999.0,29,-99.99,,,-99.99,744.719971,,2013-06-07 20:52:00,
2013-06-07 16:59:00,71.0,38.0,-100.00,East,90,7.0,-999.0,29,-99.99,,,-99.99,744.719971,,2013-06-07 20:59:00,
2013-06-07 17:00:00,72.0,40.0,-100.00,ESE,112,6.0,-999.0,31,-99.99,,,-99.99,679.760010,,2013-06-07 21:00:00,
2013-06-07 17:43:00,72.0,40.0,-100.00,ESE,112,6.0,-999.0,31,-99.99,,,-99.99,679.760010,,2013-06-07 21:43:00,
2013-06-07 18:00:00,72.0,39.0,-100.00,East,90,5.0,-999.0,30,-99.99,,,-99.99,545.200012,,2013-06-07 22:00:00,
2013-06-07 18:39:00,72.0,39.0,-100.00,East,90,5.0,-999.0,30,-99.99,,,-99.99,545.200012,,2013-06-07 22:39:00,
2013-06-07 18:49:00,72.0,39.0,-100.00,East,90,5.0,-999.0,30,-99.99,,,-99.99,545.200012,,2013-06-07 22:49:00,
2013-06-07 19:00:00,71.0,39.0,-100.00,East,90,4.0,-999.0,30,-99.99,,,-99.99,389.760010,,2013-06-07 23:00:00,
2013-06-07 19:41:00,71.0,39.0,-100.00,East,90,4.0,-999.0,30,-99.99,,,-99.99,389.760010,,2013-06-07 23:41:00,
2013-06-07 19:55:00,71.0,39.0,-100.00,East,90,4.0,-999.0,30,-99.99,,,-99.99,389.760010,,2013-06-07 23:55:00,
2013-06-07 20:00:00,69.0,41.0,-100.00,SSE,157,2.0,-999.0,37,-99.99,,,-99.99,229.679993,,2013-06-08 00:00:00,
2013-06-07 20:37:00,69.0,41.0,-100.00,SSE,157,2.0,-999.0,37,-99.99,,,-99.99,229.679993,,2013-06-08 00:37:00,
2013-06-07 21:00:00,64.0,39.0,-100.00,East,90,2.0,-999.0,41,-99.99,,,-99.99,68.440002,,2013-06-08 01:00:00,
2013-06-07 21:40:00,64.0,39.0,-100.00,East,90,2.0,-999.0,41,-99.99,,,-99.99,68.440002,,2013-06-08 01:40:00,
2013-06-07 21:49:00,64.0,39.0,-100.00,East,90,2.0,-999.0,41,-99.99,,,-99.99,68.440002,,2013-06-08 01:49:00,
2013-06-07 22:00:00,58.0,40.0,-100.00,ENE,67,3.0,-999.0,52,-99.99,,,-99.99,4.640000,,2013-06-08 02:00:00,
2013-06-07 22:49:00,58.0,40.0,-100.00,ENE,67,3.0,-999.0,52,-99.99,,,-99.99,4.640000,,2013-06-08 02:49:00,
2013-06-07 23:00:00,55.0,40.0,-100.00,ENE,67,3.0,-999.0,56,-99.99,,,-99.99,1.160000,,2013-06-08 03:00:00,
2013-06-07 23:40:00,55.0,40.0,-100.00,ENE,67,3.0,-999.0,56,-99.99,,,-99.99,1.160000,,2013-06-08 03:40:00,